Terminal Aerodrome Forecast
Issued by NWS

Home | Current Version | Previous Version | Text Only | Print | Product List | Glossary On
Versions: 1 2 3 4 5 6 7 8 9 10 11 12 13 14 15
201
FTUS46 KPDT 250520
TAFBDN
TAF
KBDN 250520Z 2506/2606 19008KT P6SM SCT080 SCT100
     FM251800 28005KT P6SM SCT050 BKN100
     FM260300 29004KT P6SM SCT250=

USA.gov is the U.S. government's official web portal to all federal, state and local government web resources and services.